createdAt,value
2023-03-27T13:48:22.150Z,33.94
2023-03-27T13:51:07.058Z,34.68
2023-03-27T13:54:55.174Z,34.60
2023-03-27T13:57:40.125Z,34.31
2023-03-27T14:00:25.087Z,34.67
2023-03-27T14:03:09.911Z,34.56
2023-03-27T14:05:56.902Z,34.98
2023-03-27T14:08:41.689Z,34.80
2023-03-27T14:11:26.517Z,34.95
2023-03-27T14:14:11.469Z,35.09
2023-03-27T14:16:56.171Z,35.01
2023-03-27T14:19:41.096Z,34.78
2023-03-27T14:22:25.861Z,35.13
2023-03-27T14:25:10.735Z,34.99
2023-03-27T14:27:55.694Z,34.11
2023-03-27T14:30:40.668Z,32.46
2023-03-27T14:33:25.654Z,32.10
2023-03-27T14:36:10.513Z,32.24
2023-03-27T14:38:55.393Z,32.03
2023-03-27T14:41:40.241Z,32.32
2023-03-27T14:44:25.110Z,31.97
2023-03-27T14:47:09.880Z,31.89
2023-03-27T14:49:54.737Z,31.80
2023-03-27T14:52:39.669Z,31.52
2023-03-27T14:55:24.600Z,31.56
2023-03-27T14:58:11.200Z,31.35
2023-03-27T15:00:56.075Z,31.42
2023-03-27T15:03:41.013Z,31.23
2023-03-27T15:06:25.922Z,30.96
2023-03-27T15:09:10.811Z,31.12
2023-03-27T15:11:55.767Z,31.24
2023-03-27T15:14:40.659Z,31.06
2023-03-27T15:17:25.636Z,31.12
2023-03-27T15:20:10.460Z,30.94
2023-03-27T15:22:55.477Z,30.78
2023-03-27T15:25:40.190Z,30.80
2023-03-27T15:28:25.185Z,30.84
2023-03-27T15:31:10.171Z,30.80
2023-03-27T15:33:54.971Z,30.47
2023-03-27T15:36:40.032Z,30.49
2023-03-27T15:39:24.869Z,30.37
2023-03-27T15:42:09.916Z,30.42
2023-03-27T15:44:54.746Z,30.02
2023-03-27T15:47:39.708Z,29.77
2023-03-27T15:50:24.477Z,29.54
2023-03-27T15:53:09.311Z,29.64
2023-03-27T15:55:54.153Z,29.56
2023-03-27T15:58:39.140Z,29.38
2023-03-27T16:01:24.113Z,29.24
2023-03-27T16:04:09.003Z,29.68
2023-03-27T16:06:53.734Z,29.88
2023-03-27T16:09:38.589Z,29.70
2023-03-27T16:12:23.710Z,29.71
2023-03-27T16:15:08.746Z,29.15
2023-03-27T16:17:53.585Z,29.27
2023-03-27T16:20:38.354Z,29.08
2023-03-27T16:23:23.254Z,28.49
2023-03-27T16:26:08.164Z,28.46
2023-03-27T16:28:53.002Z,28.51
2023-03-27T16:31:38.053Z,28.35
2023-03-27T16:34:23.765Z,28.52
2023-03-27T16:37:08.681Z,28.65
2023-03-27T16:39:53.556Z,28.55
2023-03-27T16:42:38.493Z,28.25
2023-03-27T16:45:23.400Z,28.24
2023-03-27T16:48:08.604Z,28.04
2023-03-27T16:50:53.337Z,28.11
2023-03-27T16:53:38.137Z,28.29
2023-03-27T16:56:23.133Z,28.11
2023-03-27T16:59:07.959Z,28.08
2023-03-27T17:01:52.961Z,27.83
2023-03-27T17:04:37.887Z,28.63
2023-03-27T17:07:22.779Z,28.25
2023-03-27T17:10:07.561Z,27.94
2023-03-27T17:12:52.564Z,28.00
2023-03-27T17:15:37.445Z,27.75
2023-03-27T17:18:22.375Z,28.00
2023-03-27T17:21:07.362Z,27.75
2023-03-27T17:23:52.185Z,27.77
2023-03-27T17:26:37.114Z,27.96
2023-03-27T17:29:21.925Z,27.93
2023-03-27T17:32:06.896Z,27.96
2023-03-27T17:34:51.636Z,27.95
2023-03-27T17:37:36.589Z,28.07
2023-03-27T17:40:21.508Z,28.27
2023-03-27T17:43:06.471Z,28.25
2023-03-27T17:45:51.336Z,28.20
2023-03-27T17:48:36.212Z,28.19
2023-03-27T17:51:21.362Z,28.24
2023-03-27T17:54:06.228Z,28.10
2023-03-27T17:56:51.236Z,29.09
2023-03-27T17:59:36.005Z,29.07
2023-03-27T18:02:20.927Z,29.40
2023-03-27T18:05:05.863Z,28.34
2023-03-27T18:07:50.691Z,28.04
2023-03-27T18:10:35.758Z,28.07
2023-03-27T18:13:20.583Z,27.93
2023-03-27T18:16:06.973Z,27.99
2023-03-27T18:18:51.845Z,27.90
2023-03-27T18:21:36.850Z,28.00
2023-03-27T18:24:21.814Z,27.78
2023-03-27T18:27:06.564Z,27.70
2023-03-27T18:29:51.652Z,27.80
2023-03-27T18:32:36.437Z,27.79
2023-03-27T18:35:21.426Z,27.73
2023-03-27T18:38:06.234Z,27.76
2023-03-27T18:40:51.239Z,27.67
2023-03-27T18:43:36.015Z,27.72
2023-03-27T18:46:20.845Z,27.53
2023-03-27T18:49:17.533Z,27.77
2023-03-27T18:52:06.710Z,27.67
2023-03-27T18:54:51.537Z,27.43
2023-03-27T18:57:36.438Z,27.58
2023-03-27T19:00:21.439Z,27.60
2023-03-27T19:03:06.356Z,27.63
2023-03-27T19:05:51.206Z,27.63
2023-03-27T19:08:36.059Z,27.81
2023-03-27T19:11:20.899Z,27.90
2023-03-27T19:14:05.823Z,27.91
2023-03-27T19:16:50.675Z,27.87
2023-03-27T19:19:35.509Z,28.02
2023-03-27T19:22:20.329Z,28.01
2023-03-27T19:25:05.241Z,28.07
2023-03-27T19:27:50.103Z,28.07
2023-03-27T19:30:35.145Z,28.17
2023-03-27T19:33:20.024Z,28.14
2023-03-27T19:36:04.999Z,27.99
2023-03-27T19:38:49.998Z,28.18
2023-03-27T19:41:34.860Z,28.17
2023-03-27T19:44:19.771Z,28.17
2023-03-27T19:47:04.665Z,28.14
2023-03-27T19:49:49.618Z,28.25
2023-03-27T19:52:34.441Z,28.21
2023-03-27T19:55:19.393Z,28.35
2023-03-27T19:58:04.205Z,28.26
2023-03-27T20:00:49.033Z,28.32
2023-03-27T20:03:33.985Z,28.38
2023-03-27T20:06:18.995Z,28.20
2023-03-27T20:09:04.038Z,28.28
2023-03-27T20:11:49.011Z,28.33
